sensor_id;sensor_type;location;lat;lon;timestamp;P1;durP1;ratioP1;P2;durP2;ratioP2
26335;SDS011;14047;50.936;4.654;2023-02-28T00:00:48;18.17;;;7.53;;
26335;SDS011;14047;50.936;4.654;2023-02-28T00:03:14;11.00;;;6.63;;
26335;SDS011;14047;50.936;4.654;2023-02-28T00:05:40;11.57;;;7.10;;
26335;SDS011;14047;50.936;4.654;2023-02-28T00:08:07;15.15;;;6.55;;
26335;SDS011;14047;50.936;4.654;2023-02-28T00:10:33;12.52;;;6.38;;
26335;SDS011;14047;50.936;4.654;2023-02-28T00:13:00;17.08;;;7.35;;
26335;SDS011;14047;50.936;4.654;2023-02-28T00:15:29;16.10;;;7.18;;
26335;SDS011;14047;50.936;4.654;2023-02-28T00:17:56;16.35;;;6.65;;
26335;SDS011;14047;50.936;4.654;2023-02-28T00:20:22;14.45;;;6.40;;
26335;SDS011;14047;50.936;4.654;2023-02-28T00:22:49;11.48;;;6.15;;
26335;SDS011;14047;50.936;4.654;2023-02-28T00:25:18;12.48;;;6.50;;
26335;SDS011;14047;50.936;4.654;2023-02-28T00:27:45;18.35;;;6.47;;
26335;SDS011;14047;50.936;4.654;2023-02-28T00:30:12;11.23;;;6.13;;
26335;SDS011;14047;50.936;4.654;2023-02-28T00:32:40;9.75;;;5.82;;
26335;SDS011;14047;50.936;4.654;2023-02-28T00:35:07;13.23;;;7.18;;
26335;SDS011;14047;50.936;4.654;2023-02-28T00:37:34;14.50;;;7.03;;
26335;SDS011;14047;50.936;4.654;2023-02-28T00:40:00;12.38;;;6.35;;
26335;SDS011;14047;50.936;4.654;2023-02-28T00:42:26;15.05;;;6.75;;
26335;SDS011;14047;50.936;4.654;2023-02-28T00:44:52;12.57;;;6.53;;
26335;SDS011;14047;50.936;4.654;2023-02-28T00:47:18;13.27;;;7.15;;
26335;SDS011;14047;50.936;4.654;2023-02-28T00:49:46;16.08;;;7.50;;
26335;SDS011;14047;50.936;4.654;2023-02-28T00:52:12;13.73;;;7.30;;
26335;SDS011;14047;50.936;4.654;2023-02-28T00:54:38;12.63;;;7.32;;
26335;SDS011;14047;50.936;4.654;2023-02-28T00:57:04;14.57;;;7.30;;
26335;SDS011;14047;50.936;4.654;2023-02-28T00:59:31;18.35;;;7.43;;
26335;SDS011;14047;50.936;4.654;2023-02-28T01:01:57;22.08;;;7.90;;
26335;SDS011;14047;50.936;4.654;2023-02-28T01:04:23;12.85;;;7.18;;
26335;SDS011;14047;50.936;4.654;2023-02-28T01:06:48;14.90;;;7.72;;
26335;SDS011;14047;50.936;4.654;2023-02-28T01:09:14;15.75;;;7.60;;
26335;SDS011;14047;50.936;4.654;2023-02-28T01:11:41;12.55;;;8.10;;
26335;SDS011;14047;50.936;4.654;2023-02-28T01:14:13;12.98;;;7.53;;
26335;SDS011;14047;50.936;4.654;2023-02-28T01:16:40;14.60;;;8.80;;
26335;SDS011;14047;50.936;4.654;2023-02-28T01:19:06;12.63;;;6.63;;
26335;SDS011;14047;50.936;4.654;2023-02-28T01:21:33;11.80;;;6.53;;
26335;SDS011;14047;50.936;4.654;2023-02-28T01:24:00;13.10;;;7.75;;
26335;SDS011;14047;50.936;4.654;2023-02-28T01:26:26;17.40;;;8.23;;
26335;SDS011;14047;50.936;4.654;2023-02-28T01:28:52;13.95;;;7.53;;
26335;SDS011;14047;50.936;4.654;2023-02-28T01:31:19;10.40;;;7.10;;
26335;SDS011;14047;50.936;4.654;2023-02-28T01:33:47;15.68;;;8.38;;
26335;SDS011;14047;50.936;4.654;2023-02-28T01:36:15;14.30;;;8.55;;
26335;SDS011;14047;50.936;4.654;2023-02-28T01:38:44;14.23;;;7.45;;
26335;SDS011;14047;50.936;4.654;2023-02-28T01:46:13;18.30;;;9.00;;
26335;SDS011;14047;50.936;4.654;2023-02-28T01:48:43;14.23;;;8.25;;
26335;SDS011;14047;50.936;4.654;2023-02-28T01:51:15;21.55;;;8.43;;
26335;SDS011;14047;50.936;4.654;2023-02-28T01:53:53;15.10;;;8.98;;
26335;SDS011;14047;50.936;4.654;2023-02-28T01:56:24;14.88;;;7.90;;
26335;SDS011;14047;50.936;4.654;2023-02-28T01:58:54;14.35;;;9.10;;
26335;SDS011;14047;50.936;4.654;2023-02-28T02:01:22;13.45;;;8.15;;
26335;SDS011;14047;50.936;4.654;2023-02-28T02:03:56;14.15;;;8.75;;
26335;SDS011;14047;50.936;4.654;2023-02-28T02:06:25;12.68;;;8.57;;
26335;SDS011;14047;50.936;4.654;2023-02-28T02:08:54;13.38;;;7.68;;
26335;SDS011;14047;50.936;4.654;2023-02-28T02:11:21;15.07;;;9.57;;
26335;SDS011;14047;50.936;4.654;2023-02-28T02:19:24;16.25;;;9.77;;
26335;SDS011;14047;50.936;4.654;2023-02-28T02:36:03;20.50;;;9.63;;
26335;SDS011;14047;50.936;4.654;2023-02-28T02:46:44;17.25;;;10.18;;
26335;SDS011;14047;50.936;4.654;2023-02-28T02:49:14;15.93;;;10.77;;
26335;SDS011;14047;50.936;4.654;2023-02-28T02:51:46;18.55;;;10.10;;
26335;SDS011;14047;50.936;4.654;2023-02-28T02:56:43;19.95;;;11.15;;
26335;SDS011;14047;50.936;4.654;2023-02-28T02:59:12;21.05;;;10.77;;
26335;SDS011;14047;50.936;4.654;2023-02-28T03:01:50;20.13;;;11.82;;
26335;SDS011;14047;50.936;4.654;2023-02-28T03:04:21;23.45;;;11.27;;
26335;SDS011;14047;50.936;4.654;2023-02-28T03:06:50;22.45;;;11.82;;
26335;SDS011;14047;50.936;4.654;2023-02-28T03:09:24;19.50;;;10.43;;
26335;SDS011;14047;50.936;4.654;2023-02-28T03:11:52;25.45;;;12.10;;
26335;SDS011;14047;50.936;4.654;2023-02-28T03:14:33;19.48;;;10.05;;
26335;SDS011;14047;50.936;4.654;2023-02-28T03:25:07;20.58;;;10.77;;
26335;SDS011;14047;50.936;4.654;2023-02-28T03:28:00;22.90;;;11.77;;
26335;SDS011;14047;50.936;4.654;2023-02-28T03:30:38;22.23;;;11.25;;
26335;SDS011;14047;50.936;4.654;2023-02-28T03:36:12;21.98;;;11.70;;
26335;SDS011;14047;50.936;4.654;2023-02-28T03:38:44;19.27;;;11.15;;
26335;SDS011;14047;50.936;4.654;2023-02-28T03:41:15;20.83;;;11.85;;
26335;SDS011;14047;50.936;4.654;2023-02-28T03:43:49;19.00;;;11.32;;
26335;SDS011;14047;50.936;4.654;2023-02-28T03:46:21;17.48;;;11.93;;
26335;SDS011;14047;50.936;4.654;2023-02-28T03:48:57;21.33;;;12.07;;
26335;SDS011;14047;50.936;4.654;2023-02-28T03:51:43;20.77;;;11.02;;
26335;SDS011;14047;50.936;4.654;2023-02-28T03:54:12;24.63;;;12.30;;
26335;SDS011;14047;50.936;4.654;2023-02-28T03:57:06;18.05;;;11.50;;
26335;SDS011;14047;50.936;4.654;2023-02-28T03:59:37;24.00;;;11.52;;
26335;SDS011;14047;50.936;4.654;2023-02-28T04:02:07;23.00;;;12.65;;
26335;SDS011;14047;50.936;4.654;2023-02-28T04:04:33;22.13;;;13.48;;
26335;SDS011;14047;50.936;4.654;2023-02-28T04:07:04;30.00;;;14.40;;
26335;SDS011;14047;50.936;4.654;2023-02-28T04:09:34;23.38;;;12.85;;
26335;SDS011;14047;50.936;4.654;2023-02-28T04:12:00;28.13;;;13.75;;
26335;SDS011;14047;50.936;4.654;2023-02-28T04:14:26;26.85;;;13.27;;
26335;SDS011;14047;50.936;4.654;2023-02-28T04:16:52;27.50;;;13.43;;
26335;SDS011;14047;50.936;4.654;2023-02-28T04:19:18;23.10;;;13.50;;
26335;SDS011;14047;50.936;4.654;2023-02-28T04:21:46;24.13;;;13.65;;
26335;SDS011;14047;50.936;4.654;2023-02-28T04:24:18;21.80;;;13.43;;
26335;SDS011;14047;50.936;4.654;2023-02-28T04:26:47;24.67;;;12.32;;
26335;SDS011;14047;50.936;4.654;2023-02-28T04:29:23;21.38;;;12.75;;
26335;SDS011;14047;50.936;4.654;2023-02-28T04:31:50;20.33;;;12.05;;
26335;SDS011;14047;50.936;4.654;2023-02-28T04:34:18;25.00;;;13.18;;
26335;SDS011;14047;50.936;4.654;2023-02-28T04:36:46;23.27;;;12.38;;
26335;SDS011;14047;50.936;4.654;2023-02-28T04:39:18;20.58;;;12.07;;
26335;SDS011;14047;50.936;4.654;2023-02-28T04:41:45;22.20;;;12.70;;
26335;SDS011;14047;50.936;4.654;2023-02-28T04:44:11;25.02;;;14.15;;
26335;SDS011;14047;50.936;4.654;2023-02-28T04:46:37;27.92;;;14.25;;
26335;SDS011;14047;50.936;4.654;2023-02-28T04:49:03;24.25;;;14.00;;
26335;SDS011;14047;50.936;4.654;2023-02-28T04:51:29;27.58;;;14.10;;
26335;SDS011;14047;50.936;4.654;2023-02-28T04:53:56;25.17;;;13.93;;
26335;SDS011;14047;50.936;4.654;2023-02-28T04:56:22;33.13;;;14.50;;
26335;SDS011;14047;50.936;4.654;2023-02-28T04:58:48;24.15;;;13.52;;
26335;SDS011;14047;50.936;4.654;2023-02-28T05:01:18;23.23;;;13.63;;
26335;SDS011;14047;50.936;4.654;2023-02-28T05:03:55;23.45;;;13.20;;
26335;SDS011;14047;50.936;4.654;2023-02-28T05:06:24;23.48;;;14.13;;
26335;SDS011;14047;50.936;4.654;2023-02-28T05:08:52;25.25;;;14.00;;
26335;SDS011;14047;50.936;4.654;2023-02-28T05:11:23;25.92;;;13.55;;
26335;SDS011;14047;50.936;4.654;2023-02-28T05:13:51;30.13;;;13.93;;
26335;SDS011;14047;50.936;4.654;2023-02-28T05:16:19;25.52;;;12.82;;
26335;SDS011;14047;50.936;4.654;2023-02-28T05:18:45;23.85;;;13.02;;
26335;SDS011;14047;50.936;4.654;2023-02-28T05:23:58;21.38;;;12.57;;
26335;SDS011;14047;50.936;4.654;2023-02-28T05:26:26;26.95;;;13.02;;
26335;SDS011;14047;50.936;4.654;2023-02-28T05:28:53;19.92;;;12.82;;
26335;SDS011;14047;50.936;4.654;2023-02-28T05:31:20;23.08;;;13.18;;
26335;SDS011;14047;50.936;4.654;2023-02-28T05:33:46;23.85;;;13.27;;
26335;SDS011;14047;50.936;4.654;2023-02-28T05:36:12;25.05;;;13.32;;
26335;SDS011;14047;50.936;4.654;2023-02-28T05:38:38;28.58;;;13.95;;
26335;SDS011;14047;50.936;4.654;2023-02-28T05:41:08;20.35;;;12.65;;
26335;SDS011;14047;50.936;4.654;2023-02-28T05:43:36;25.52;;;13.07;;
26335;SDS011;14047;50.936;4.654;2023-02-28T05:46:03;24.13;;;12.77;;
26335;SDS011;14047;50.936;4.654;2023-02-28T05:48:31;23.52;;;13.57;;
26335;SDS011;14047;50.936;4.654;2023-02-28T05:50:57;26.92;;;13.90;;
26335;SDS011;14047;50.936;4.654;2023-02-28T05:53:23;20.80;;;12.95;;
26335;SDS011;14047;50.936;4.654;2023-02-28T05:55:49;25.17;;;12.60;;
26335;SDS011;14047;50.936;4.654;2023-02-28T05:58:15;20.35;;;13.02;;
26335;SDS011;14047;50.936;4.654;2023-02-28T06:00:41;22.55;;;11.90;;
26335;SDS011;14047;50.936;4.654;2023-02-28T06:03:07;19.38;;;12.63;;
26335;SDS011;14047;50.936;4.654;2023-02-28T06:05:33;22.52;;;11.65;;
26335;SDS011;14047;50.936;4.654;2023-02-28T06:07:59;19.67;;;12.38;;
26335;SDS011;14047;50.936;4.654;2023-02-28T06:10:25;22.10;;;12.57;;
26335;SDS011;14047;50.936;4.654;2023-02-28T06:12:51;22.35;;;11.13;;
26335;SDS011;14047;50.936;4.654;2023-02-28T06:15:17;19.70;;;12.60;;
26335;SDS011;14047;50.936;4.654;2023-02-28T06:17:43;19.70;;;11.27;;
26335;SDS011;14047;50.936;4.654;2023-02-28T06:20:10;23.02;;;10.95;;
26335;SDS011;14047;50.936;4.654;2023-02-28T06:22:38;20.95;;;12.10;;
26335;SDS011;14047;50.936;4.654;2023-02-28T06:25:05;17.83;;;11.20;;
26335;SDS011;14047;50.936;4.654;2023-02-28T06:27:32;20.92;;;10.52;;
26335;SDS011;14047;50.936;4.654;2023-02-28T06:29:58;21.50;;;11.40;;
26335;SDS011;14047;50.936;4.654;2023-02-28T06:32:24;20.92;;;10.45;;
26335;SDS011;14047;50.936;4.654;2023-02-28T06:34:50;17.52;;;10.88;;
26335;SDS011;14047;50.936;4.654;2023-02-28T06:37:17;18.77;;;10.65;;
26335;SDS011;14047;50.936;4.654;2023-02-28T06:39:43;21.38;;;10.93;;
26335;SDS011;14047;50.936;4.654;2023-02-28T06:42:09;18.08;;;10.18;;
26335;SDS011;14047;50.936;4.654;2023-02-28T06:44:35;19.48;;;11.15;;
26335;SDS011;14047;50.936;4.654;2023-02-28T06:47:02;19.23;;;10.07;;
26335;SDS011;14047;50.936;4.654;2023-02-28T06:49:29;20.60;;;11.05;;
26335;SDS011;14047;50.936;4.654;2023-02-28T06:51:58;18.88;;;10.95;;
26335;SDS011;14047;50.936;4.654;2023-02-28T06:54:24;17.08;;;10.35;;
26335;SDS011;14047;50.936;4.654;2023-02-28T06:56:50;17.45;;;10.25;;
26335;SDS011;14047;50.936;4.654;2023-02-28T06:59:17;21.90;;;10.15;;
26335;SDS011;14047;50.936;4.654;2023-02-28T07:01:43;19.02;;;10.38;;
26335;SDS011;14047;50.936;4.654;2023-02-28T07:04:09;20.15;;;10.70;;
26335;SDS011;14047;50.936;4.654;2023-02-28T07:06:34;17.80;;;11.00;;
26335;SDS011;14047;50.936;4.654;2023-02-28T07:09:00;16.67;;;9.23;;
26335;SDS011;14047;50.936;4.654;2023-02-28T07:11:27;17.17;;;9.45;;
26335;SDS011;14047;50.936;4.654;2023-02-28T07:13:54;17.58;;;10.18;;
26335;SDS011;14047;50.936;4.654;2023-02-28T07:16:21;21.92;;;10.32;;
26335;SDS011;14047;50.936;4.654;2023-02-28T07:18:48;18.70;;;9.80;;
26335;SDS011;14047;50.936;4.654;2023-02-28T07:21:14;17.65;;;8.98;;
26335;SDS011;14047;50.936;4.654;2023-02-28T07:23:40;16.67;;;9.00;;
26335;SDS011;14047;50.936;4.654;2023-02-28T07:26:07;16.90;;;10.20;;
26335;SDS011;14047;50.936;4.654;2023-02-28T07:28:40;14.18;;;9.27;;
26335;SDS011;14047;50.936;4.654;2023-02-28T07:31:07;17.85;;;9.73;;
26335;SDS011;14047;50.936;4.654;2023-02-28T07:38:35;17.80;;;9.85;;
26335;SDS011;14047;50.936;4.654;2023-02-28T07:41:02;16.50;;;9.27;;
26335;SDS011;14047;50.936;4.654;2023-02-28T07:43:33;16.77;;;10.10;;
26335;SDS011;14047;50.936;4.654;2023-02-28T07:46:09;16.65;;;9.32;;
26335;SDS011;14047;50.936;4.654;2023-02-28T07:48:37;20.23;;;9.02;;
26335;SDS011;14047;50.936;4.654;2023-02-28T07:51:03;17.35;;;8.55;;
26335;SDS011;14047;50.936;4.654;2023-02-28T07:53:29;18.23;;;9.15;;
26335;SDS011;14047;50.936;4.654;2023-02-28T07:55:56;13.15;;;8.93;;
26335;SDS011;14047;50.936;4.654;2023-02-28T07:58:24;16.80;;;8.85;;
26335;SDS011;14047;50.936;4.654;2023-02-28T08:00:51;12.70;;;8.02;;
26335;SDS011;14047;50.936;4.654;2023-02-28T08:03:18;14.45;;;8.15;;
26335;SDS011;14047;50.936;4.654;2023-02-28T08:05:45;14.43;;;7.63;;
26335;SDS011;14047;50.936;4.654;2023-02-28T08:08:11;18.40;;;8.43;;
26335;SDS011;14047;50.936;4.654;2023-02-28T08:10:37;14.00;;;8.48;;
26335;SDS011;14047;50.936;4.654;2023-02-28T08:13:03;10.85;;;6.97;;
26335;SDS011;14047;50.936;4.654;2023-02-28T08:15:29;16.60;;;6.90;;
26335;SDS011;14047;50.936;4.654;2023-02-28T08:17:56;10.82;;;6.65;;
26335;SDS011;14047;50.936;4.654;2023-02-28T08:20:22;11.10;;;6.47;;
26335;SDS011;14047;50.936;4.654;2023-02-28T08:22:49;11.52;;;6.72;;
26335;SDS011;14047;50.936;4.654;2023-02-28T08:25:15;11.45;;;7.13;;
26335;SDS011;14047;50.936;4.654;2023-02-28T08:27:41;16.75;;;6.70;;
26335;SDS011;14047;50.936;4.654;2023-02-28T08:30:07;15.93;;;6.82;;
26335;SDS011;14047;50.936;4.654;2023-02-28T08:32:39;10.75;;;6.65;;
26335;SDS011;14047;50.936;4.654;2023-02-28T08:35:05;12.27;;;6.88;;
26335;SDS011;14047;50.936;4.654;2023-02-28T08:37:32;12.57;;;6.30;;
26335;SDS011;14047;50.936;4.654;2023-02-28T08:39:58;10.75;;;7.00;;
26335;SDS011;14047;50.936;4.654;2023-02-28T08:42:23;10.73;;;6.20;;
26335;SDS011;14047;50.936;4.654;2023-02-28T08:44:49;7.90;;;4.97;;
26335;SDS011;14047;50.936;4.654;2023-02-28T08:47:15;8.27;;;4.50;;
26335;SDS011;14047;50.936;4.654;2023-02-28T08:49:42;22.00;;;6.78;;
26335;SDS011;14047;50.936;4.654;2023-02-28T08:52:08;34.80;;;7.07;;
26335;SDS011;14047;50.936;4.654;2023-02-28T08:54:34;17.08;;;6.22;;
26335;SDS011;14047;50.936;4.654;2023-02-28T08:57:01;11.50;;;5.00;;
26335;SDS011;14047;50.936;4.654;2023-02-28T08:59:28;9.35;;;4.95;;
26335;SDS011;14047;50.936;4.654;2023-02-28T09:01:54;12.70;;;6.15;;
26335;SDS011;14047;50.936;4.654;2023-02-28T09:04:20;7.90;;;4.63;;
26335;SDS011;14047;50.936;4.654;2023-02-28T09:06:46;9.15;;;4.63;;
26335;SDS011;14047;50.936;4.654;2023-02-28T09:09:14;7.75;;;4.53;;
26335;SDS011;14047;50.936;4.654;2023-02-28T09:11:40;6.72;;;4.40;;
26335;SDS011;14047;50.936;4.654;2023-02-28T09:14:06;6.70;;;4.05;;
26335;SDS011;14047;50.936;4.654;2023-02-28T09:16:33;7.78;;;4.65;;
26335;SDS011;14047;50.936;4.654;2023-02-28T09:18:59;9.60;;;4.40;;
26335;SDS011;14047;50.936;4.654;2023-02-28T09:21:25;7.88;;;4.07;;
26335;SDS011;14047;50.936;4.654;2023-02-28T09:23:51;8.30;;;4.72;;
26335;SDS011;14047;50.936;4.654;2023-02-28T09:26:22;6.93;;;4.38;;
26335;SDS011;14047;50.936;4.654;2023-02-28T09:28:50;7.38;;;4.32;;
26335;SDS011;14047;50.936;4.654;2023-02-28T09:31:19;10.05;;;4.28;;
26335;SDS011;14047;50.936;4.654;2023-02-28T09:33:50;8.80;;;3.30;;
26335;SDS011;14047;50.936;4.654;2023-02-28T09:36:18;6.25;;;3.92;;
26335;SDS011;14047;50.936;4.654;2023-02-28T09:38:45;6.22;;;3.70;;
26335;SDS011;14047;50.936;4.654;2023-02-28T09:44:06;8.02;;;4.18;;
26335;SDS011;14047;50.936;4.654;2023-02-28T09:46:43;8.95;;;4.03;;
26335;SDS011;14047;50.936;4.654;2023-02-28T09:49:17;6.18;;;3.65;;
26335;SDS011;14047;50.936;4.654;2023-02-28T09:51:59;5.05;;;3.05;;
26335;SDS011;14047;50.936;4.654;2023-02-28T09:54:55;5.00;;;3.45;;
26335;SDS011;14047;50.936;4.654;2023-02-28T09:57:31;6.43;;;3.10;;
26335;SDS011;14047;50.936;4.654;2023-02-28T10:00:21;5.28;;;3.45;;
26335;SDS011;14047;50.936;4.654;2023-02-28T10:08:29;5.35;;;2.03;;
26335;SDS011;14047;50.936;4.654;2023-02-28T10:11:02;3.40;;;2.03;;
26335;SDS011;14047;50.936;4.654;2023-02-28T10:13:34;4.85;;;2.00;;
26335;SDS011;14047;50.936;4.654;2023-02-28T10:18:51;6.28;;;1.95;;
26335;SDS011;14047;50.936;4.654;2023-02-28T10:21:28;4.18;;;2.22;;
26335;SDS011;14047;50.936;4.654;2023-02-28T10:24:02;3.03;;;2.13;;
26335;SDS011;14047;50.936;4.654;2023-02-28T10:26:31;3.67;;;2.05;;
26335;SDS011;14047;50.936;4.654;2023-02-28T10:28:58;2.20;;;1.80;;
26335;SDS011;14047;50.936;4.654;2023-02-28T10:31:24;6.75;;;2.58;;
26335;SDS011;14047;50.936;4.654;2023-02-28T10:33:50;4.03;;;2.03;;
26335;SDS011;14047;50.936;4.654;2023-02-28T10:36:17;3.55;;;2.20;;
26335;SDS011;14047;50.936;4.654;2023-02-28T10:38:45;5.30;;;2.50;;
26335;SDS011;14047;50.936;4.654;2023-02-28T10:41:14;6.78;;;2.65;;
26335;SDS011;14047;50.936;4.654;2023-02-28T10:43:42;4.13;;;2.53;;
26335;SDS011;14047;50.936;4.654;2023-02-28T10:49:00;5.18;;;2.53;;
26335;SDS011;14047;50.936;4.654;2023-02-28T10:51:27;5.18;;;2.55;;
26335;SDS011;14047;50.936;4.654;2023-02-28T10:54:04;3.05;;;2.25;;
26335;SDS011;14047;50.936;4.654;2023-02-28T10:56:31;3.72;;;2.10;;
26335;SDS011;14047;50.936;4.654;2023-02-28T10:58:59;3.35;;;2.20;;
26335;SDS011;14047;50.936;4.654;2023-02-28T11:09:51;4.15;;;2.60;;
26335;SDS011;14047;50.936;4.654;2023-02-28T11:14:47;3.35;;;2.05;;
26335;SDS011;14047;50.936;4.654;2023-02-28T11:17:20;5.50;;;2.67;;
26335;SDS011;14047;50.936;4.654;2023-02-28T11:19:53;5.93;;;2.20;;
26335;SDS011;14047;50.936;4.654;2023-02-28T11:22:29;4.03;;;2.53;;
26335;SDS011;14047;50.936;4.654;2023-02-28T11:25:02;3.63;;;2.45;;
26335;SDS011;14047;50.936;4.654;2023-02-28T11:32:59;5.32;;;2.80;;
26335;SDS011;14047;50.936;4.654;2023-02-28T11:35:27;3.85;;;2.70;;
26335;SDS011;14047;50.936;4.654;2023-02-28T11:38:05;9.15;;;2.92;;
26335;SDS011;14047;50.936;4.654;2023-02-28T11:43:06;3.88;;;2.90;;
26335;SDS011;14047;50.936;4.654;2023-02-28T11:48:22;39.33;;;4.38;;
26335;SDS011;14047;50.936;4.654;2023-02-28T11:51:08;2.90;;;2.00;;
26335;SDS011;14047;50.936;4.654;2023-02-28T11:56:46;18.50;;;3.25;;
26335;SDS011;14047;50.936;4.654;2023-02-28T11:59:22;16.40;;;3.75;;
26335;SDS011;14047;50.936;4.654;2023-02-28T12:05:29;60.97;;;7.55;;
26335;SDS011;14047;50.936;4.654;2023-02-28T12:10:40;72.68;;;8.75;;
26335;SDS011;14047;50.936;4.654;2023-02-28T12:13:20;30.58;;;4.50;;
26335;SDS011;14047;50.936;4.654;2023-02-28T12:16:06;4.30;;;2.33;;
26335;SDS011;14047;50.936;4.654;2023-02-28T12:26:54;8.50;;;2.22;;
26335;SDS011;14047;50.936;4.654;2023-02-28T12:32:15;5.22;;;2.30;;
26335;SDS011;14047;50.936;4.654;2023-02-28T12:35:16;60.65;;;5.60;;
26335;SDS011;14047;50.936;4.654;2023-02-28T12:40:20;2.45;;;2.22;;
26335;SDS011;14047;50.936;4.654;2023-02-28T12:45:20;6.25;;;2.45;;
26335;SDS011;14047;50.936;4.654;2023-02-28T12:47:56;3.38;;;2.20;;
26335;SDS011;14047;50.936;4.654;2023-02-28T12:50:25;4.38;;;2.83;;
26335;SDS011;14047;50.936;4.654;2023-02-28T12:53:15;7.18;;;2.42;;
26335;SDS011;14047;50.936;4.654;2023-02-28T12:56:14;4.00;;;2.60;;
26335;SDS011;14047;50.936;4.654;2023-02-28T12:58:58;2.75;;;2.08;;
26335;SDS011;14047;50.936;4.654;2023-02-28T13:10:14;5.15;;;3.10;;
26335;SDS011;14047;50.936;4.654;2023-02-28T13:12:48;4.68;;;2.83;;
26335;SDS011;14047;50.936;4.654;2023-02-28T13:15:23;6.85;;;2.70;;
26335;SDS011;14047;50.936;4.654;2023-02-28T13:17:54;5.13;;;2.40;;
26335;SDS011;14047;50.936;4.654;2023-02-28T13:20:26;2.85;;;2.22;;
26335;SDS011;14047;50.936;4.654;2023-02-28T13:22:55;3.58;;;2.30;;
26335;SDS011;14047;50.936;4.654;2023-02-28T13:27:52;4.30;;;2.05;;
26335;SDS011;14047;50.936;4.654;2023-02-28T13:38:54;3.97;;;2.55;;
26335;SDS011;14047;50.936;4.654;2023-02-28T13:44:07;7.15;;;2.88;;
26335;SDS011;14047;50.936;4.654;2023-02-28T13:46:35;6.00;;;3.08;;
26335;SDS011;14047;50.936;4.654;2023-02-28T13:51:51;4.43;;;3.00;;
26335;SDS011;14047;50.936;4.654;2023-02-28T13:57:14;8.93;;;2.90;;
26335;SDS011;14047;50.936;4.654;2023-02-28T14:11:49;8.60;;;2.65;;
26335;SDS011;14047;50.936;4.654;2023-02-28T14:17:01;4.97;;;2.78;;
26335;SDS011;14047;50.936;4.654;2023-02-28T14:19:32;95.25;;;11.15;;
26335;SDS011;14047;50.936;4.654;2023-02-28T14:30:01;9.90;;;3.30;;
26335;SDS011;14047;50.936;4.654;2023-02-28T14:32:51;4.78;;;3.40;;
26335;SDS011;14047;50.936;4.654;2023-02-28T14:35:23;11.20;;;3.25;;
26335;SDS011;14047;50.936;4.654;2023-02-28T14:38:05;5.70;;;3.03;;
26335;SDS011;14047;50.936;4.654;2023-02-28T14:40:38;4.03;;;3.20;;
26335;SDS011;14047;50.936;4.654;2023-02-28T14:43:05;4.93;;;3.15;;
26335;SDS011;14047;50.936;4.654;2023-02-28T14:45:43;4.28;;;3.00;;
26335;SDS011;14047;50.936;4.654;2023-02-28T14:48:19;22.20;;;5.18;;
26335;SDS011;14047;50.936;4.654;2023-02-28T14:50:57;9.45;;;3.38;;
26335;SDS011;14047;50.936;4.654;2023-02-28T14:53:25;7.25;;;3.22;;
26335;SDS011;14047;50.936;4.654;2023-02-28T14:55:54;10.63;;;3.33;;
26335;SDS011;14047;50.936;4.654;2023-02-28T14:58:25;113.85;;;11.88;;
26335;SDS011;14047;50.936;4.654;2023-02-28T15:00:54;10.15;;;3.72;;
26335;SDS011;14047;50.936;4.654;2023-02-28T15:03:36;31.05;;;5.68;;
26335;SDS011;14047;50.936;4.654;2023-02-28T15:06:05;32.28;;;6.38;;
26335;SDS011;14047;50.936;4.654;2023-02-28T15:08:37;8.63;;;3.40;;
26335;SDS011;14047;50.936;4.654;2023-02-28T15:11:13;4.35;;;2.80;;
26335;SDS011;14047;50.936;4.654;2023-02-28T15:13:53;5.30;;;2.88;;
26335;SDS011;14047;50.936;4.654;2023-02-28T15:19:00;5.90;;;2.58;;
26335;SDS011;14047;50.936;4.654;2023-02-28T15:21:46;4.47;;;2.80;;
26335;SDS011;14047;50.936;4.654;2023-02-28T15:26:57;6.95;;;3.00;;
26335;SDS011;14047;50.936;4.654;2023-02-28T15:29:26;4.13;;;2.85;;
26335;SDS011;14047;50.936;4.654;2023-02-28T15:32:01;7.50;;;3.05;;
26335;SDS011;14047;50.936;4.654;2023-02-28T15:34:36;7.10;;;3.00;;
26335;SDS011;14047;50.936;4.654;2023-02-28T15:39:51;6.25;;;3.20;;
26335;SDS011;14047;50.936;4.654;2023-02-28T15:42:19;3.13;;;2.50;;
26335;SDS011;14047;50.936;4.654;2023-02-28T15:44:47;4.60;;;2.80;;
26335;SDS011;14047;50.936;4.654;2023-02-28T15:47:21;7.50;;;3.20;;
26335;SDS011;14047;50.936;4.654;2023-02-28T15:52:17;10.00;;;2.85;;
26335;SDS011;14047;50.936;4.654;2023-02-28T15:54:45;7.47;;;2.75;;
26335;SDS011;14047;50.936;4.654;2023-02-28T15:57:22;4.50;;;2.97;;
26335;SDS011;14047;50.936;4.654;2023-02-28T16:00:01;4.47;;;2.50;;
26335;SDS011;14047;50.936;4.654;2023-02-28T16:02:37;6.32;;;2.45;;
26335;SDS011;14047;50.936;4.654;2023-02-28T16:07:33;4.70;;;2.88;;
26335;SDS011;14047;50.936;4.654;2023-02-28T16:10:01;4.53;;;3.13;;
26335;SDS011;14047;50.936;4.654;2023-02-28T16:12:28;4.22;;;2.92;;
26335;SDS011;14047;50.936;4.654;2023-02-28T16:15:00;4.97;;;2.97;;
26335;SDS011;14047;50.936;4.654;2023-02-28T16:17:29;6.95;;;2.83;;
26335;SDS011;14047;50.936;4.654;2023-02-28T16:19:58;5.57;;;2.83;;
26335;SDS011;14047;50.936;4.654;2023-02-28T16:22:24;4.90;;;2.75;;
26335;SDS011;14047;50.936;4.654;2023-02-28T16:24:50;5.95;;;2.63;;
26335;SDS011;14047;50.936;4.654;2023-02-28T16:27:27;3.78;;;2.50;;
26335;SDS011;14047;50.936;4.654;2023-02-28T16:29:58;9.13;;;2.60;;
26335;SDS011;14047;50.936;4.654;2023-02-28T16:32:24;3.10;;;2.05;;
26335;SDS011;14047;50.936;4.654;2023-02-28T16:34:50;9.30;;;3.25;;
26335;SDS011;14047;50.936;4.654;2023-02-28T16:37:16;4.82;;;2.60;;
26335;SDS011;14047;50.936;4.654;2023-02-28T16:39:43;6.85;;;2.40;;
26335;SDS011;14047;50.936;4.654;2023-02-28T16:42:14;3.47;;;2.60;;
26335;SDS011;14047;50.936;4.654;2023-02-28T16:44:58;5.15;;;3.00;;
26335;SDS011;14047;50.936;4.654;2023-02-28T16:47:24;6.72;;;2.60;;
26335;SDS011;14047;50.936;4.654;2023-02-28T16:49:52;4.20;;;2.25;;
26335;SDS011;14047;50.936;4.654;2023-02-28T16:52:18;5.72;;;2.92;;
26335;SDS011;14047;50.936;4.654;2023-02-28T16:54:43;5.85;;;2.80;;
26335;SDS011;14047;50.936;4.654;2023-02-28T16:57:15;7.70;;;2.97;;
26335;SDS011;14047;50.936;4.654;2023-02-28T16:59:45;8.43;;;2.80;;
26335;SDS011;14047;50.936;4.654;2023-02-28T17:02:12;3.88;;;2.97;;
26335;SDS011;14047;50.936;4.654;2023-02-28T17:04:40;5.53;;;3.40;;
26335;SDS011;14047;50.936;4.654;2023-02-28T17:07:09;4.05;;;2.85;;
26335;SDS011;14047;50.936;4.654;2023-02-28T17:09:38;6.50;;;3.42;;
26335;SDS011;14047;50.936;4.654;2023-02-28T17:12:04;5.80;;;3.15;;
26335;SDS011;14047;50.936;4.654;2023-02-28T17:14:30;8.85;;;3.70;;
26335;SDS011;14047;50.936;4.654;2023-02-28T17:16:56;5.63;;;3.35;;
26335;SDS011;14047;50.936;4.654;2023-02-28T17:19:22;5.03;;;3.47;;
26335;SDS011;14047;50.936;4.654;2023-02-28T17:21:48;6.43;;;3.42;;
26335;SDS011;14047;50.936;4.654;2023-02-28T17:24:14;5.53;;;3.42;;
26335;SDS011;14047;50.936;4.654;2023-02-28T17:26:40;6.82;;;3.42;;
26335;SDS011;14047;50.936;4.654;2023-02-28T17:29:20;5.22;;;3.08;;
26335;SDS011;14047;50.936;4.654;2023-02-28T17:31:47;7.75;;;3.47;;
26335;SDS011;14047;50.936;4.654;2023-02-28T17:34:13;7.47;;;3.55;;
26335;SDS011;14047;50.936;4.654;2023-02-28T17:36:43;6.47;;;4.00;;
26335;SDS011;14047;50.936;4.654;2023-02-28T17:39:12;8.00;;;3.88;;
26335;SDS011;14047;50.936;4.654;2023-02-28T17:41:40;6.65;;;4.35;;
26335;SDS011;14047;50.936;4.654;2023-02-28T17:44:07;10.10;;;4.30;;
26335;SDS011;14047;50.936;4.654;2023-02-28T17:46:34;13.20;;;4.60;;
26335;SDS011;14047;50.936;4.654;2023-02-28T17:49:00;11.98;;;4.80;;